Terminal Aerodrome Forecast
Issued by NWS

Home | Current Version | Previous Version | Text Only | Print | Product List | Glossary Off
Versions: 1 2 3 4 5 6 7 8 9 10 11 12 13 14 15 16

000
FTUS43 KICT 021120
TAFRSL
TAF
KRSL 021120Z 0212/0312 24007KT P6SM SKC
     FM021300 VRB06KT P6SM BKN250
     FM030900 07004KT P6SM OVC050=

USA.gov is the U.S. government's official web portal to all federal, state and local government web resources and services.